createdAt,value
2017-11-25T00:01:54.481Z,5.40
2017-11-25T00:04:23.344Z,5.23
2017-11-25T00:06:52.207Z,8.80
2017-11-25T00:09:21.086Z,7.00
2017-11-25T00:11:49.929Z,5.33
2017-11-25T00:14:18.818Z,5.87
2017-11-25T00:16:47.660Z,4.70
2017-11-25T00:19:16.516Z,4.73
2017-11-25T00:21:45.389Z,4.70
2017-11-25T00:24:14.240Z,5.00
2017-11-25T00:26:43.108Z,5.30
2017-11-25T00:29:12.379Z,5.07
2017-11-25T00:31:41.269Z,5.03
2017-11-25T00:34:10.111Z,5.90
2017-11-25T00:36:39.131Z,4.70
2017-11-25T00:39:07.984Z,5.57
2017-11-25T00:41:36.843Z,4.20
2017-11-25T00:44:05.723Z,3.80
2017-11-25T00:46:34.573Z,4.50
2017-11-25T00:49:03.456Z,4.50
2017-11-25T00:51:32.303Z,4.93
2017-11-25T00:54:01.157Z,4.43
2017-11-25T00:56:30.010Z,5.63
2017-11-25T00:58:58.876Z,5.63
2017-11-25T01:01:27.720Z,4.53
2017-11-25T01:03:56.630Z,4.63
2017-11-25T01:06:25.472Z,5.40
2017-11-25T01:08:54.317Z,4.90
2017-11-25T01:11:23.180Z,4.77
2017-11-25T01:13:52.043Z,4.67
2017-11-25T01:16:20.909Z,5.10
2017-11-25T01:18:49.778Z,4.87
2017-11-25T01:21:18.637Z,4.40
2017-11-25T01:23:47.553Z,4.20
2017-11-25T01:26:16.713Z,4.33
2017-11-25T01:28:45.566Z,3.90
2017-11-25T01:31:14.422Z,4.37
2017-11-25T01:33:43.306Z,4.70
2017-11-25T01:36:12.159Z,4.40
2017-11-25T01:38:41.051Z,5.00
2017-11-25T01:41:09.924Z,4.63
2017-11-25T01:43:38.834Z,4.90
2017-11-25T01:46:07.688Z,4.57
2017-11-25T01:48:36.545Z,4.23
2017-11-25T01:51:05.444Z,4.63
2017-11-25T01:53:34.315Z,4.50
2017-11-25T01:56:03.184Z,4.23
2017-11-25T01:58:32.052Z,5.03
2017-11-25T02:01:00.930Z,5.17
2017-11-25T02:03:29.779Z,4.23
2017-11-25T02:05:58.636Z,4.30
2017-11-25T02:08:27.495Z,4.30
2017-11-25T02:10:56.353Z,4.10
2017-11-25T02:13:25.216Z,4.67
2017-11-25T02:15:54.060Z,4.33
2017-11-25T02:18:22.966Z,4.37
2017-11-25T02:20:51.827Z,3.43
2017-11-25T02:23:20.671Z,4.30
2017-11-25T02:25:49.536Z,4.20
2017-11-25T02:28:18.385Z,3.83
2017-11-25T02:30:47.267Z,4.63
2017-11-25T02:33:16.124Z,4.60
2017-11-25T02:35:44.972Z,4.47
2017-11-25T02:38:13.863Z,4.43
2017-11-25T02:40:42.706Z,4.57
2017-11-25T02:43:11.649Z,4.53
2017-11-25T02:45:40.508Z,4.90
2017-11-25T02:48:09.387Z,5.00
2017-11-25T02:50:38.259Z,4.33
2017-11-25T02:53:07.104Z,5.07
2017-11-25T02:55:35.977Z,5.20
2017-11-25T02:58:04.828Z,4.50
2017-11-25T03:00:33.741Z,4.17
2017-11-25T03:03:02.610Z,4.40
2017-11-25T03:05:31.457Z,4.53
2017-11-25T03:08:00.319Z,4.17
2017-11-25T03:10:29.210Z,4.57
2017-11-25T03:12:58.082Z,4.30
2017-11-25T03:15:26.936Z,4.23
2017-11-25T03:17:55.827Z,4.23
2017-11-25T03:20:24.669Z,4.50
2017-11-25T03:22:53.524Z,3.80
2017-11-25T03:25:22.407Z,5.17
2017-11-25T03:27:51.259Z,4.33
2017-11-25T03:30:20.310Z,4.00
2017-11-25T03:32:49.181Z,3.80
2017-11-25T03:35:18.046Z,4.27
2017-11-25T03:37:46.906Z,3.33
2017-11-25T03:40:15.757Z,4.60
2017-11-25T03:42:44.639Z,3.90
2017-11-25T03:45:13.503Z,3.87
2017-11-25T03:47:42.373Z,3.03
2017-11-25T03:50:11.267Z,3.47
2017-11-25T03:52:40.127Z,4.00
2017-11-25T03:55:08.975Z,3.10
2017-11-25T03:57:37.855Z,3.83
2017-11-25T04:00:06.695Z,2.93
2017-11-25T04:02:35.609Z,3.27
2017-11-25T04:05:04.459Z,3.00
2017-11-25T04:07:33.308Z,3.27
2017-11-25T04:10:02.167Z,3.40
2017-11-25T04:12:31.024Z,2.80
2017-11-25T04:14:59.879Z,2.87
2017-11-25T04:17:28.729Z,2.93
2017-11-25T04:19:57.607Z,3.37
2017-11-25T04:22:26.479Z,3.30
2017-11-25T04:24:55.531Z,2.87
2017-11-25T04:27:24.407Z,3.50
2017-11-25T04:29:53.261Z,2.77
2017-11-25T04:32:22.139Z,3.43
2017-11-25T04:34:50.988Z,3.40
2017-11-25T04:37:19.865Z,2.70
2017-11-25T04:39:48.707Z,3.50
2017-11-25T04:42:17.608Z,2.90
2017-11-25T04:44:46.456Z,3.77
2017-11-25T04:47:15.304Z,3.40
2017-11-25T04:49:44.198Z,3.57
2017-11-25T04:52:13.060Z,3.60
2017-11-25T04:54:41.922Z,3.07
2017-11-25T04:57:10.760Z,3.67
2017-11-25T04:59:39.655Z,3.73
2017-11-25T05:02:08.528Z,3.17
2017-11-25T05:04:37.388Z,3.83
2017-11-25T05:07:06.312Z,2.83
2017-11-25T05:09:35.187Z,3.03
2017-11-25T05:12:04.055Z,3.10
2017-11-25T05:14:32.901Z,3.30
2017-11-25T05:17:01.755Z,2.60
2017-11-25T05:19:30.634Z,3.50
2017-11-25T05:21:59.502Z,4.13
2017-11-25T05:24:28.359Z,3.87
2017-11-25T05:26:57.344Z,3.00
2017-11-25T05:29:26.199Z,3.90
2017-11-25T05:31:55.059Z,2.90
2017-11-25T05:34:23.918Z,3.47
2017-11-25T05:36:52.760Z,3.63
2017-11-25T05:39:21.623Z,3.50
2017-11-25T05:41:50.483Z,4.20
2017-11-25T05:44:19.346Z,5.30
2017-11-25T05:46:48.187Z,3.30
2017-11-25T05:49:17.056Z,4.90
2017-11-25T05:51:45.899Z,3.90
2017-11-25T05:54:14.767Z,3.90
2017-11-25T05:56:43.640Z,3.83
2017-11-25T05:59:12.505Z,3.73
2017-11-25T06:01:41.374Z,3.57
2017-11-25T06:04:10.230Z,3.43
2017-11-25T06:06:39.102Z,3.60
2017-11-25T06:09:07.943Z,3.70
2017-11-25T06:11:36.915Z,3.50
2017-11-25T06:14:05.772Z,3.07
2017-11-25T06:16:34.610Z,4.10
2017-11-25T06:19:03.486Z,3.07
2017-11-25T06:21:32.350Z,4.40
2017-11-25T06:24:01.241Z,3.20
2017-11-25T06:26:30.095Z,3.10
2017-11-25T06:28:58.977Z,3.23
2017-11-25T06:31:27.840Z,3.47
2017-11-25T06:33:56.701Z,3.60
2017-11-25T06:36:25.564Z,4.03
2017-11-25T06:38:54.420Z,3.07
2017-11-25T06:41:23.317Z,3.03
2017-11-25T06:43:52.165Z,3.10
2017-11-25T06:46:21.067Z,3.63
2017-11-25T06:48:49.916Z,3.03
2017-11-25T06:51:18.779Z,3.33
2017-11-25T06:53:47.639Z,3.83
2017-11-25T06:56:16.511Z,3.83
2017-11-25T06:58:45.387Z,3.70
2017-11-25T07:01:14.234Z,2.93
2017-11-25T07:03:43.196Z,2.90
2017-11-25T07:06:12.037Z,4.40
2017-11-25T07:08:40.896Z,3.45
2017-11-25T07:11:09.759Z,3.70
2017-11-25T07:13:38.596Z,3.60
2017-11-25T07:16:07.475Z,3.73
2017-11-25T07:18:36.333Z,3.63
2017-11-25T07:21:05.349Z,4.00
2017-11-25T07:23:34.196Z,4.40
2017-11-25T07:26:03.044Z,3.70
2017-11-25T07:28:31.944Z,4.00
2017-11-25T07:31:00.789Z,4.63
2017-11-25T07:33:29.679Z,3.80
2017-11-25T07:35:58.530Z,4.50
2017-11-25T07:38:27.580Z,4.23
2017-11-25T07:40:56.442Z,4.00
2017-11-25T07:43:25.285Z,4.20
2017-11-25T07:45:54.243Z,4.20
2017-11-25T07:48:23.081Z,3.50
2017-11-25T07:50:51.936Z,4.07
2017-11-25T07:53:20.841Z,3.83
2017-11-25T07:55:49.714Z,4.17
2017-11-25T07:58:18.566Z,3.87
2017-11-25T08:00:47.413Z,3.20
2017-11-25T08:03:16.288Z,3.90
2017-11-25T08:05:45.152Z,3.70
2017-11-25T08:08:14.027Z,3.97
2017-11-25T08:10:42.871Z,3.80
2017-11-25T08:13:11.761Z,3.53
2017-11-25T08:15:40.612Z,3.70
2017-11-25T08:18:09.465Z,4.17
2017-11-25T08:20:38.325Z,4.20
2017-11-25T08:23:07.183Z,4.07
2017-11-25T08:25:36.039Z,3.70
2017-11-25T08:28:04.888Z,4.03
2017-11-25T08:30:33.754Z,4.03
2017-11-25T08:33:02.603Z,4.73
2017-11-25T08:35:31.477Z,4.10
2017-11-25T08:38:00.337Z,4.30
2017-11-25T08:40:29.201Z,4.10
2017-11-25T08:42:58.056Z,4.20
2017-11-25T08:45:26.960Z,3.73
2017-11-25T08:47:55.828Z,4.17
2017-11-25T08:50:24.689Z,4.87
2017-11-25T08:52:53.557Z,3.67
2017-11-25T08:55:22.410Z,4.20
2017-11-25T08:57:51.290Z,3.53
2017-11-25T09:00:20.139Z,3.90
2017-11-25T09:02:49.032Z,3.97
2017-11-25T09:05:17.877Z,3.40
2017-11-25T09:07:46.742Z,4.20
2017-11-25T09:10:15.668Z,4.03
2017-11-25T09:12:44.520Z,4.17
2017-11-25T09:15:13.379Z,4.10
2017-11-25T09:17:42.228Z,3.73
2017-11-25T09:20:11.084Z,3.63
2017-11-25T09:22:39.931Z,3.27
2017-11-25T09:25:08.800Z,3.60
2017-11-25T09:27:37.650Z,3.43
2017-11-25T09:30:06.489Z,3.53
2017-11-25T09:32:35.360Z,3.93
2017-11-25T09:35:04.233Z,3.87
2017-11-25T09:37:33.110Z,4.07
2017-11-25T09:40:01.967Z,3.60
2017-11-25T09:42:31.611Z,4.00
2017-11-25T09:45:00.456Z,4.30
2017-11-25T09:47:29.313Z,4.47
2017-11-25T09:49:58.197Z,4.17
2017-11-25T09:52:27.111Z,4.20
2017-11-25T09:54:55.962Z,5.27
2017-11-25T09:57:24.819Z,6.30
2017-11-25T09:59:53.693Z,6.40
2017-11-25T10:02:22.538Z,8.03
2017-11-25T10:04:51.429Z,8.63
2017-11-25T10:07:20.279Z,7.97
2017-11-25T10:09:49.191Z,8.30
2017-11-25T10:12:18.039Z,11.10
2017-11-25T10:14:46.906Z,11.17
2017-11-25T10:17:15.773Z,11.73
2017-11-25T10:19:44.658Z,11.47
2017-11-25T10:22:13.581Z,11.57
2017-11-25T10:24:42.439Z,10.83
2017-11-25T10:27:11.294Z,9.70
2017-11-25T10:29:40.164Z,9.77
2017-11-25T10:32:09.011Z,8.17
2017-11-25T10:34:37.878Z,7.17
2017-11-25T10:37:06.752Z,5.93
2017-11-25T10:39:35.671Z,5.10
2017-11-25T10:42:04.530Z,5.40
2017-11-25T10:44:33.398Z,5.70
2017-11-25T10:47:02.244Z,4.30
2017-11-25T10:49:31.113Z,4.07
2017-11-25T10:51:59.978Z,3.30
2017-11-25T10:54:28.862Z,3.40
2017-11-25T10:56:57.720Z,2.60
2017-11-25T10:59:26.595Z,3.10
2017-11-25T11:01:55.450Z,3.23
2017-11-25T11:04:24.317Z,2.67
2017-11-25T11:06:53.159Z,2.53
2017-11-25T11:09:22.041Z,2.80
2017-11-25T11:11:50.893Z,3.00
2017-11-25T11:14:19.769Z,2.70
2017-11-25T11:16:48.628Z,2.47
2017-11-25T11:19:17.487Z,1.30
2017-11-25T11:21:46.338Z,1.10
2017-11-25T11:24:15.204Z,0.80
2017-11-25T11:26:44.108Z,1.00
2017-11-25T11:29:12.985Z,0.70
2017-11-25T11:31:41.841Z,0.87
2017-11-25T11:34:10.707Z,0.60
2017-11-25T11:36:39.560Z,0.70
2017-11-25T11:39:08.403Z,0.80
2017-11-25T11:41:37.262Z,0.70
2017-11-25T11:44:06.136Z,0.70
2017-11-25T11:46:35.001Z,0.60
2017-11-25T11:49:03.845Z,0.80
2017-11-25T11:51:32.715Z,0.80
2017-11-25T11:54:01.563Z,1.07
2017-11-25T11:56:30.448Z,0.90
2017-11-25T11:58:59.298Z,1.13
2017-11-25T12:01:28.167Z,1.30
2017-11-25T12:03:57.087Z,0.60
2017-11-25T12:06:25.956Z,0.63
2017-11-25T12:08:54.799Z,0.90
2017-11-25T12:11:23.673Z,0.83
2017-11-25T12:13:52.540Z,0.77
2017-11-25T12:16:21.685Z,1.30
2017-11-25T12:18:50.522Z,1.10
2017-11-25T12:21:19.390Z,0.70
2017-11-25T12:23:48.368Z,1.80
2017-11-25T12:26:17.214Z,1.30
2017-11-25T12:28:46.090Z,1.30
2017-11-25T12:31:14.965Z,1.47
2017-11-25T12:33:43.848Z,0.90
2017-11-25T12:36:12.687Z,0.73
2017-11-25T12:38:41.536Z,0.90
2017-11-25T12:41:10.432Z,1.00
2017-11-25T12:43:39.294Z,0.90
2017-11-25T12:46:08.179Z,0.83
2017-11-25T12:48:37.033Z,0.70
2017-11-25T12:51:06.515Z,0.83
2017-11-25T12:53:35.362Z,0.70
2017-11-25T12:56:04.208Z,0.77
2017-11-25T12:58:33.067Z,0.80
2017-11-25T13:01:01.920Z,0.90
2017-11-25T13:03:30.787Z,1.03
2017-11-25T13:05:59.631Z,0.87
2017-11-25T13:08:28.503Z,0.83
2017-11-25T13:10:57.355Z,0.70
2017-11-25T13:13:26.214Z,0.87
2017-11-25T13:15:55.080Z,0.73
2017-11-25T13:18:23.927Z,0.80
2017-11-25T13:20:52.796Z,0.97
2017-11-25T13:23:21.639Z,1.00
2017-11-25T13:25:50.520Z,1.03
2017-11-25T13:28:19.363Z,0.90
2017-11-25T13:30:48.227Z,0.70
2017-11-25T13:33:17.108Z,0.80
2017-11-25T13:35:45.980Z,0.80
2017-11-25T13:38:14.823Z,0.63
2017-11-25T13:40:43.700Z,0.60
2017-11-25T13:43:12.549Z,0.50
2017-11-25T13:45:41.384Z,0.60
2017-11-25T13:48:10.247Z,0.60
2017-11-25T13:50:39.112Z,0.80
2017-11-25T13:53:08.012Z,0.70
2017-11-25T13:55:36.874Z,0.87
2017-11-25T13:58:05.758Z,0.73
2017-11-25T14:00:34.616Z,0.73
2017-11-25T14:03:03.467Z,0.90
2017-11-25T14:05:32.412Z,0.90
2017-11-25T14:08:01.380Z,0.90
2017-11-25T14:10:30.264Z,0.70
2017-11-25T14:12:59.103Z,0.63
2017-11-25T14:15:28.056Z,0.80
2017-11-25T14:17:56.919Z,0.67
2017-11-25T14:20:25.775Z,1.20
2017-11-25T14:22:54.800Z,0.70
2017-11-25T14:25:23.655Z,0.80
2017-11-25T14:27:52.506Z,0.80
2017-11-25T14:30:21.383Z,0.80
2017-11-25T14:32:50.263Z,4.27
2017-11-25T14:35:19.116Z,0.90
2017-11-25T14:37:47.968Z,1.00
2017-11-25T14:40:16.854Z,1.10
2017-11-25T14:42:45.821Z,1.23
2017-11-25T14:45:14.742Z,0.87
2017-11-25T14:47:43.588Z,0.80
2017-11-25T14:50:12.442Z,0.80
2017-11-25T14:52:41.359Z,0.60
2017-11-25T14:55:10.211Z,1.00
2017-11-25T14:57:39.100Z,1.10
2017-11-25T15:00:07.943Z,0.90
2017-11-25T15:02:36.791Z,0.80
2017-11-25T15:05:05.666Z,0.70
2017-11-25T15:07:34.507Z,0.80
2017-11-25T15:10:03.370Z,0.90
2017-11-25T15:12:32.245Z,0.90
2017-11-25T15:15:01.115Z,0.87
2017-11-25T15:17:29.988Z,1.30
2017-11-25T15:19:58.871Z,0.83
2017-11-25T15:22:27.727Z,0.93
2017-11-25T15:24:56.591Z,1.10
2017-11-25T15:27:25.439Z,0.97
2017-11-25T15:29:54.308Z,0.80
2017-11-25T15:32:23.172Z,1.40
2017-11-25T15:34:52.068Z,1.10
2017-11-25T15:37:20.898Z,1.37
2017-11-25T15:39:49.771Z,1.23
2017-11-25T15:42:18.654Z,1.50
2017-11-25T15:44:47.572Z,0.90
2017-11-25T15:47:16.431Z,1.00
2017-11-25T15:49:45.297Z,1.00
2017-11-25T15:52:14.166Z,1.30
2017-11-25T15:54:43.016Z,1.20
2017-11-25T15:57:11.853Z,0.97
2017-11-25T15:59:40.718Z,1.87
2017-11-25T16:02:09.565Z,1.00
2017-11-25T16:04:38.422Z,0.93
2017-11-25T16:07:07.268Z,1.40
2017-11-25T16:09:36.163Z,1.10
2017-11-25T16:12:05.010Z,1.50
2017-11-25T16:14:33.858Z,1.80
2017-11-25T16:17:02.711Z,1.50
2017-11-25T16:19:31.563Z,1.27
2017-11-25T16:22:00.451Z,1.20
2017-11-25T16:24:29.294Z,1.20
2017-11-25T16:26:58.138Z,1.20
2017-11-25T16:32:02.448Z,1.53
2017-11-25T16:34:31.343Z,1.33
2017-11-25T16:37:00.189Z,1.37
2017-11-25T16:39:29.080Z,1.23
2017-11-25T16:41:57.939Z,1.47
2017-11-25T16:44:26.819Z,1.67
2017-11-25T16:46:55.699Z,1.57
2017-11-25T16:49:24.564Z,1.97
2017-11-25T16:51:53.404Z,1.90
2017-11-25T16:54:22.263Z,2.40
2017-11-25T16:56:51.103Z,2.00
2017-11-25T16:59:20.006Z,1.90
2017-11-25T17:01:48.865Z,2.20
2017-11-25T17:04:17.738Z,2.10
2017-11-25T17:06:46.594Z,1.70
2017-11-25T17:09:15.440Z,2.17
2017-11-25T17:11:44.333Z,1.50
2017-11-25T17:14:13.240Z,2.40
2017-11-25T17:16:42.086Z,2.53
2017-11-25T17:19:10.955Z,4.13
2017-11-25T17:21:39.803Z,2.53
2017-11-25T17:24:08.685Z,2.50
2017-11-25T17:26:37.539Z,2.30
2017-11-25T17:29:06.392Z,2.03
2017-11-25T17:31:35.260Z,2.17
2017-11-25T17:34:04.124Z,2.67
2017-11-25T17:36:33.018Z,2.43
2017-11-25T17:39:01.884Z,2.37
2017-11-25T17:41:30.727Z,2.47
2017-11-25T17:43:59.602Z,2.60
2017-11-25T17:46:28.452Z,2.53
2017-11-25T17:48:57.356Z,26.60
2017-11-25T17:51:26.204Z,2.47
2017-11-25T17:53:55.054Z,2.40
2017-11-25T17:56:23.928Z,3.50
2017-11-25T17:58:52.836Z,2.23
2017-11-25T18:01:21.704Z,2.47
2017-11-25T18:03:50.581Z,2.13
2017-11-25T18:06:19.419Z,2.50
2017-11-25T18:08:48.276Z,2.30
2017-11-25T18:11:17.139Z,2.67
2017-11-25T18:13:46.013Z,2.00
2017-11-25T18:16:14.884Z,2.23
2017-11-25T18:18:43.756Z,2.13
2017-11-25T18:21:12.624Z,2.40
2017-11-25T18:23:41.486Z,2.00
2017-11-25T18:26:10.670Z,3.00
2017-11-25T18:28:39.518Z,2.60
2017-11-25T18:31:08.381Z,3.17
2017-11-25T18:33:37.248Z,2.47
2017-11-25T18:36:06.114Z,2.13
2017-11-25T18:38:35.017Z,2.70
2017-11-25T18:41:03.878Z,2.90
2017-11-25T18:43:32.736Z,2.63
2017-11-25T18:46:01.621Z,2.50
2017-11-25T18:48:30.471Z,2.50
2017-11-25T18:50:59.346Z,2.83
2017-11-25T18:53:28.192Z,3.60
2017-11-25T18:55:57.045Z,3.20
2017-11-25T18:58:25.926Z,3.00
2017-11-25T19:00:54.775Z,3.00
2017-11-25T19:03:23.665Z,3.60
2017-11-25T19:05:52.508Z,3.00
2017-11-25T19:08:21.372Z,2.47
2017-11-25T19:10:50.244Z,2.93
2017-11-25T19:13:19.103Z,2.97
2017-11-25T19:15:48.013Z,2.43
2017-11-25T19:18:16.858Z,2.70
2017-11-25T19:20:45.708Z,2.70
2017-11-25T19:23:14.586Z,2.40
2017-11-25T19:25:43.428Z,3.27
2017-11-25T19:28:12.286Z,2.67
2017-11-25T19:30:41.132Z,2.80
2017-11-25T19:33:10.862Z,3.03
2017-11-25T19:35:39.716Z,2.50
2017-11-25T19:38:08.746Z,3.17
2017-11-25T19:40:37.595Z,2.33
2017-11-25T19:43:06.483Z,2.20
2017-11-25T19:45:35.348Z,2.67
2017-11-25T19:48:04.198Z,2.63
2017-11-25T19:50:33.061Z,2.50
2017-11-25T19:53:01.949Z,1.80
2017-11-25T19:55:30.799Z,2.23
2017-11-25T19:57:59.631Z,2.00
2017-11-25T20:00:28.495Z,2.17
2017-11-25T20:02:57.353Z,2.00
2017-11-25T20:05:26.233Z,1.80
2017-11-25T20:07:55.071Z,2.17
2017-11-25T20:10:23.910Z,2.07
2017-11-25T20:12:52.811Z,2.20
2017-11-25T20:15:21.690Z,2.40
2017-11-25T20:17:50.630Z,1.90
2017-11-25T20:20:19.476Z,1.67
2017-11-25T20:22:48.386Z,1.83
2017-11-25T20:25:17.307Z,2.20
2017-11-25T20:27:46.183Z,2.57
2017-11-25T20:30:15.065Z,3.17
2017-11-25T20:32:43.907Z,3.77
2017-11-25T20:35:12.779Z,3.87
2017-11-25T20:37:41.938Z,3.10
2017-11-25T20:40:10.784Z,3.30
2017-11-25T20:42:39.683Z,2.77
2017-11-25T20:45:08.539Z,3.30
2017-11-25T20:47:37.386Z,3.40
2017-11-25T20:50:06.357Z,4.80
2017-11-25T20:52:35.217Z,2.97
2017-11-25T20:55:04.955Z,2.93
2017-11-25T20:57:33.840Z,3.17
2017-11-25T21:00:02.688Z,2.40
2017-11-25T21:02:31.654Z,3.10
2017-11-25T21:05:00.627Z,2.40
2017-11-25T21:07:29.535Z,2.60
2017-11-25T21:09:58.384Z,2.80
2017-11-25T21:12:27.318Z,2.60
2017-11-25T21:14:56.210Z,2.57
2017-11-25T21:17:25.060Z,3.37
2017-11-25T21:19:54.038Z,2.77
2017-11-25T21:22:22.907Z,3.50
2017-11-25T21:24:51.787Z,3.10
2017-11-25T21:27:20.659Z,3.43
2017-11-25T21:29:49.504Z,3.33
2017-11-25T21:32:18.390Z,3.60
2017-11-25T21:34:47.238Z,3.10
2017-11-25T21:37:16.115Z,4.83
2017-11-25T21:39:44.981Z,3.87
2017-11-25T21:42:13.836Z,3.20
2017-11-25T21:44:42.699Z,3.80
2017-11-25T21:47:11.564Z,5.23
2017-11-25T21:49:40.455Z,4.23
2017-11-25T21:52:09.312Z,4.10
2017-11-25T21:54:38.162Z,3.97
2017-11-25T21:57:07.044Z,3.30
2017-11-25T21:59:35.915Z,3.90
2017-11-25T22:02:04.822Z,4.50
2017-11-25T22:04:33.682Z,4.40
2017-11-25T22:07:02.537Z,3.80
2017-11-25T22:09:31.402Z,4.17
2017-11-25T22:12:00.266Z,4.30
2017-11-25T22:14:29.170Z,4.30
2017-11-25T22:16:58.054Z,4.70
2017-11-25T22:19:26.901Z,4.17
2017-11-25T22:21:55.779Z,3.87
2017-11-25T22:24:24.637Z,3.73
2017-11-25T22:26:53.525Z,3.50
2017-11-25T22:29:22.380Z,3.70
2017-11-25T22:31:51.752Z,3.57
2017-11-25T22:34:20.603Z,3.20
2017-11-25T22:36:49.461Z,2.93
2017-11-25T22:39:18.336Z,3.57
2017-11-25T22:41:47.188Z,3.30
2017-11-25T22:44:16.086Z,4.70
2017-11-25T22:46:44.961Z,3.53
2017-11-25T22:49:13.824Z,3.60
2017-11-25T22:51:42.742Z,3.50
2017-11-25T22:54:17.416Z,3.60
2017-11-25T22:56:46.310Z,3.40
2017-11-25T22:59:15.156Z,3.20
2017-11-25T23:01:44.028Z,3.00
2017-11-25T23:04:12.895Z,3.60
2017-11-25T23:06:41.761Z,4.80
2017-11-25T23:09:10.664Z,3.60
2017-11-25T23:14:14.979Z,3.70
2017-11-25T23:16:43.824Z,4.60
2017-11-25T23:19:12.676Z,6.03
2017-11-25T23:21:41.527Z,4.30
2017-11-25T23:24:10.372Z,4.53
2017-11-25T23:26:39.268Z,3.90
2017-11-25T23:29:08.126Z,4.67
2017-11-25T23:31:36.990Z,4.70
2017-11-25T23:34:05.857Z,4.17
2017-11-25T23:36:34.697Z,4.37
2017-11-25T23:39:03.570Z,3.97
2017-11-25T23:41:32.427Z,4.30
2017-11-25T23:44:01.291Z,4.30
2017-11-25T23:46:30.143Z,4.10
2017-11-25T23:48:59.026Z,4.23
2017-11-25T23:51:27.987Z,5.07
2017-11-25T23:53:56.926Z,4.47
2017-11-25T23:56:25.797Z,4.30
2017-11-25T23:58:54.690Z,4.00
